Elsa — WDB7862 — position and weather

sailwx.info

Track history (hours):
 
Tides and Currents Weather Stations Pressure Air Temp Water Temp Dewpoint Dewpoint Depression Visibility Wind Speed Wind Dir Waves Ship Positions

Elsa

Owner: GP RESOURCES INC., TERMINAL ISLAND, CA. More information available from US FCC via Universal Licensing System and Coast Guard Vessel Documentation Center.

Last reported at 2017-Oct-29 11:59 UTC. Time now 2017-Nov-18 10:07 UTC.
Position N 33°44' W 118°16'.
Warning: this ship's position is 19 days out of date.

Length 18 m.

Type: Tug. MMSI: 366949020.

Date/timePositionNaut miles runAvg speedWind from/ knotsBaromVisibWave heightAir tempDewpointWater temp
2017-Oct-29 11:59N 33°44' W 118°16'0 0.0
2017-Oct-29 11:22N 33°44' W 118°16'3 0.9
2017-Oct-29 08:31N 33°43' W 118°13'0 0.0
2017-Oct-29 07:04N 33°43' W 118°13'0 0.0
2017-Oct-29 06:54N 33°43' W 118°13'2 2.5
2017-Oct-29 06:01N 33°43' W 118°16'0 6.4
2017-Oct-29 05:59N 33°44' W 118°16'1 0.0
2017-Oct-27 23:08N 33°44' W 118°16'0 0.5
2017-Oct-27 23:00N 33°44' W 118°16'0 0.0
2017-Oct-26 13:42N 33°44' W 118°16'  
2017-Oct-22 01:22N 33°43' W 118°14'2 5.0
2017-Oct-22 00:58N 33°44' W 118°16'  
Track history (hours):
 
Tides and Currents Weather Stations Pressure Air Temp Water Temp Dewpoint Dewpoint Depression Visibility Wind Speed Wind Dir Waves Ship Positions

Elsa

Owner: GP RESOURCES INC., TERMINAL ISLAND, CA. More information available from US FCC via Universal Licensing System and Coast Guard Vessel Documentation Center.

Last reported at 2017-Oct-29 11:59 UTC. Time now 2017-Nov-18 10:07 UTC.
Position N 33°44' W 118°16'.
Warning: this ship's position is 19 days out of date.

Length 18 m.

Type: Tug. MMSI: 366949020.

Date/timePositionNaut miles runAvg speedWind from/ knotsBaromVisibWave heightAir tempDewpointWater temp
2017-Oct-29 11:59N 33°44' W 118°16'0 0.0
2017-Oct-29 11:22N 33°44' W 118°16'3 0.9
2017-Oct-29 08:31N 33°43' W 118°13'0 0.0
2017-Oct-29 07:04N 33°43' W 118°13'0 0.0
2017-Oct-29 06:54N 33°43' W 118°13'2 2.5
2017-Oct-29 06:01N 33°43' W 118°16'0 6.4
2017-Oct-29 05:59N 33°44' W 118°16'1 0.0
2017-Oct-27 23:08N 33°44' W 118°16'0 0.5
2017-Oct-27 23:00N 33°44' W 118°16'0 0.0
2017-Oct-26 13:42N 33°44' W 118°16'  
2017-Oct-22 01:22N 33°43' W 118°14'2 5.0
2017-Oct-22 00:58N 33°44' W 118°16'  

Dump ship's entire track history